Time;durP1;ratioP1;P1;durP2;ratioP2;P2;SDS_P1;SDS_P2;PMS_P1;PMS_P2;Temp;Humidity;BMP_temperature;BMP_pressure;BME280_temperature;BME280_humidity;BME280_pressure;Samples;Min_cycle;Max_cycle;Signal;HPM_P1;HPM_P2
2024/01/27 00:00:45;;;;;;;12.93;3.40;;;;;;;1.85;100.00;103455.28;4992367;28;20129;-75
2024/01/27 00:03:11;;;;;;;14.48;3.78;;;;;;;1.82;100.00;103459.31;4992945;28;20131;-75
2024/01/27 00:05:38;;;;;;;13.45;3.05;;;;;;;1.82;100.00;103456.69;4992338;28;20053;-74
2024/01/27 00:08:05;;;;;;;17.17;3.83;;;;;;;1.81;100.00;103459.63;4992323;28;20047;-74
2024/01/27 00:10:31;;;;;;;9.48;3.05;;;;;;;1.79;100.00;103462.56;4992193;28;20157;-75
2024/01/27 00:12:58;;;;;;;7.72;3.30;;;;;;;1.78;100.00;103462.88;4993180;28;20054;-74
2024/01/27 00:15:25;;;;;;;8.52;3.30;;;;;;;1.75;100.00;103464.25;4992297;28;20035;-74
2024/01/27 00:17:51;;;;;;;13.13;2.95;;;;;;;1.74;100.00;103467.97;4992694;28;20050;-74
2024/01/27 00:20:18;;;;;;;11.95;3.20;;;;;;;1.72;100.00;103462.25;4988670;28;20078;-74
2024/01/27 00:22:44;;;;;;;13.93;3.22;;;;;;;1.71;100.00;103459.94;4992580;28;20054;-74
2024/01/27 00:25:11;;;;;;;6.43;3.25;;;;;;;1.67;100.00;103460.56;4991777;28;20046;-74
2024/01/27 00:27:37;;;;;;;11.48;3.42;;;;;;;1.66;100.00;103459.03;4991869;28;20859;-75
2024/01/27 00:30:05;;;;;;;14.18;3.38;;;;;;;1.65;100.00;103459.34;4992267;28;20117;-75
2024/01/27 00:32:33;;;;;;;12.95;3.58;;;;;;;1.64;100.00;103463.81;4992091;28;20074;-74
2024/01/27 00:35:00;;;;;;;13.60;3.65;;;;;;;1.63;100.00;103464.91;4993327;28;20057;-74
2024/01/27 00:37:27;;;;;;;9.75;3.25;;;;;;;1.61;100.00;103461.81;4994967;28;20039;-74
2024/01/27 00:39:53;;;;;;;10.85;2.88;;;;;;;1.62;100.00;103465.22;4995504;28;20129;-76
2024/01/27 00:42:23;;;;;;;8.40;2.60;;;;;;;1.60;100.00;103462.88;4992054;28;20042;-76
2024/01/27 00:44:51;;;;;;;14.43;2.92;;;;;;;1.60;100.00;103470.78;4992394;28;20449;-76
2024/01/27 00:47:18;;;;;;;12.25;2.97;;;;;;;1.58;100.00;103465.09;4995029;28;20058;-76
2024/01/27 00:49:44;;;;;;;9.60;3.42;;;;;;;1.56;100.00;103459.38;4994871;28;20047;-76
2024/01/27 00:52:11;;;;;;;10.30;3.72;;;;;;;1.55;100.00;103452.56;4995030;28;20047;-76
2024/01/27 00:54:37;;;;;;;12.07;4.18;;;;;;;1.52;100.00;103461.06;4995502;28;20047;-76
2024/01/27 00:57:04;;;;;;;10.30;3.33;;;;;;;1.51;100.00;103458.75;4995155;28;20042;-76
2024/01/27 00:59:30;;;;;;;10.27;3.22;;;;;;;1.48;100.00;103467.25;4994119;28;20098;-76
2024/01/27 01:01:57;;;;;;;12.85;3.70;;;;;;;1.46;100.00;103469.41;4995766;28;20154;-76
2024/01/27 01:04:24;;;;;;;7.57;2.95;;;;;;;1.47;100.00;103460.47;4994897;28;20546;-76
2024/01/27 01:06:50;;;;;;;9.55;3.28;;;;;;;1.45;100.00;103460.00;4995254;28;20054;-76
2024/01/27 01:09:17;;;;;;;10.55;3.42;;;;;;;1.41;100.00;103459.06;4994336;28;20534;-76
2024/01/27 01:11:43;;;;;;;15.57;2.80;;;;;;;1.40;100.00;103460.91;4994881;28;20102;-76
2024/01/27 01:14:10;;;;;;;12.40;2.72;;;;;;;1.40;100.00;103474.03;4995099;28;20046;-76
2024/01/27 01:16:37;;;;;;;11.98;3.45;;;;;;;1.38;100.00;103476.22;4994319;28;20046;-76
2024/01/27 01:19:03;;;;;;;11.13;3.13;;;;;;;1.36;100.00;103478.38;4994805;28;20516;-76
2024/01/27 01:21:30;;;;;;;6.72;3.08;;;;;;;1.35;100.00;103479.44;4994801;28;20047;-76
2024/01/27 01:23:57;;;;;;;11.88;3.35;;;;;;;1.31;100.00;103484.53;4994491;28;20142;-76
2024/01/27 01:26:24;;;;;;;9.95;3.30;;;;;;;1.29;100.00;103476.19;4993885;28;20069;-75
2024/01/27 01:28:52;;;;;;;10.05;3.00;;;;;;;1.28;100.00;103479.91;4995026;28;20102;-75
2024/01/27 01:31:18;;;;;;;11.30;2.60;;;;;;;1.27;100.00;103477.59;4994061;28;20043;-75
2024/01/27 01:33:45;;;;;;;15.65;2.75;;;;;;;1.25;100.00;103477.13;4994395;28;20439;-75
2024/01/27 01:36:12;;;;;;;12.00;3.17;;;;;;;1.22;100.00;103468.03;4994566;28;20483;-74
2024/01/27 01:38:38;;;;;;;7.53;2.50;;;;;;;1.23;100.00;103468.78;4976783;28;20133;-74
2024/01/27 01:41:05;;;;;;;7.03;3.20;;;;;;;1.23;100.00;103469.56;4994286;28;20138;-74
2024/01/27 01:43:32;;;;;;;14.32;2.65;;;;;;;1.23;100.00;103460.91;4994902;28;20505;-75
2024/01/27 01:45:58;;;;;;;10.95;2.97;;;;;;;1.20;100.00;103467.56;4994555;28;20043;-75
2024/01/27 01:48:25;;;;;;;8.77;2.47;;;;;;;1.18;100.00;103469.75;4993083;28;20122;-74
2024/01/27 01:50:53;;;;;;;13.73;3.00;;;;;;;1.19;100.00;103470.50;4995051;28;20490;-74
2024/01/27 01:53:20;;;;;;;8.82;2.47;;;;;;;1.18;100.00;103477.63;4994266;28;20043;-74
2024/01/27 01:55:46;;;;;;;7.10;2.78;;;;;;;1.17;100.00;103481.31;4993955;28;20073;-75
2024/01/27 01:58:13;;;;;;;12.63;3.53;;;;;;;1.17;100.00;103477.91;4994188;28;20423;-75
2024/01/27 02:00:39;;;;;;;8.25;2.50;;;;;;;1.15;100.00;103482.69;4993946;28;20046;-75
2024/01/27 02:03:11;;;;;;;10.00;2.85;;;;;;;1.13;100.00;103485.63;4994475;28;20046;-75
2024/01/27 02:05:38;;;;;;;10.82;2.85;;;;;;;1.10;100.00;103488.88;4994770;28;20042;-74
2024/01/27 02:08:05;;;;;;;7.85;2.90;;;;;;;1.10;100.00;103485.47;4994574;28;20515;-75
2024/01/27 02:10:37;;;;;;;5.13;2.80;;;;;;;1.08;100.00;103474.50;4993401;28;20537;-74
2024/01/27 02:13:16;;;;;;;13.38;2.80;;;;;;;1.07;100.00;103471.13;4991704;28;20043;-73
2024/01/27 02:15:42;;;;;;;9.77;2.50;;;;;;;1.08;100.00;103482.38;4993881;28;20049;-73
2024/01/27 02:18:09;;;;;;;8.10;2.53;;;;;;;1.07;100.00;103478.97;4994650;28;20509;-74
2024/01/27 02:20:37;;;;;;;7.75;2.60;;;;;;;1.06;100.00;103476.66;4993761;28;20046;-74
2024/01/27 02:23:04;;;;;;;7.40;2.47;;;;;;;1.05;100.00;103475.91;4994032;28;20046;-73
2024/01/27 02:25:32;;;;;;;13.18;2.67;;;;;;;1.04;100.00;103471.72;4990614;28;20127;-73
2024/01/27 02:27:59;;;;;;;6.10;2.63;;;;;;;1.05;100.00;103475.13;4993942;28;20047;-75
2024/01/27 02:30:25;;;;;;;8.27;2.38;;;;;;;1.03;100.00;103472.81;4993585;28;20050;-74
2024/01/27 02:32:52;;;;;;;4.70;2.10;;;;;;;1.03;100.00;103478.06;4994111;28;20129;-74
2024/01/27 02:35:18;;;;;;;12.88;2.83;;;;;;;1.03;100.00;103467.56;4993418;28;20105;-74
2024/01/27 02:37:45;;;;;;;10.52;2.30;;;;;;;1.03;100.00;103474.66;4994027;28;20051;-74
2024/01/27 02:40:12;;;;;;;10.90;2.80;;;;;;;1.02;100.00;103473.13;4993521;28;20478;-74
2024/01/27 02:42:38;;;;;;;7.03;2.70;;;;;;;1.02;100.00;103473.13;4993136;28;20573;-75
2024/01/27 02:45:05;;;;;;;11.02;2.70;;;;;;;1.02;100.00;103475.72;4993600;28;20054;-74
2024/01/27 02:47:32;;;;;;;6.95;2.33;;;;;;;1.00;100.00;103484.69;4990056;28;20082;-74
2024/01/27 02:49:58;;;;;;;8.02;2.35;;;;;;;1.02;100.00;103489.63;4993594;28;20043;-74
2024/01/27 02:52:25;;;;;;;10.90;2.42;;;;;;;1.02;100.00;103489.63;4992876;28;20506;-74
2024/01/27 02:54:52;;;;;;;9.00;2.58;;;;;;;1.02;100.00;103488.84;4994104;28;20082;-74
2024/01/27 02:57:19;;;;;;;8.60;2.78;;;;;;;0.99;100.00;103491.00;4993387;28;20043;-74
2024/01/27 02:59:46;;;;;;;8.23;2.17;;;;;;;1.00;100.00;103483.91;4992993;28;20518;-76
2024/01/27 03:02:13;;;;;;;7.18;1.83;;;;;;;1.02;100.00;103480.97;4993347;28;20051;-75
2024/01/27 03:04:40;;;;;;;14.77;1.98;;;;;;;1.04;100.00;103487.47;4993039;28;20050;-75
2024/01/27 03:07:06;;;;;;;6.47;2.10;;;;;;;1.02;100.00;103489.63;4993581;28;20101;-74
2024/01/27 03:09:33;;;;;;;13.25;2.55;;;;;;;1.03;100.00;103485.16;4992711;28;20051;-74
2024/01/27 03:12:00;;;;;;;14.15;2.20;;;;;;;1.04;100.00;103492.72;4993131;28;20051;-75
2024/01/27 03:14:26;;;;;;;11.30;2.58;;;;;;;1.05;100.00;103488.25;4992583;28;20039;-75
2024/01/27 03:16:53;;;;;;;11.40;2.50;;;;;;;1.04;100.00;103484.06;4997536;28;20054;-78
2024/01/27 03:19:20;;;;;;;10.20;2.00;;;;;;;1.03;100.00;103493.03;4996152;28;20098;-79
2024/01/27 03:21:47;;;;;;;13.63;2.88;;;;;;;1.03;100.00;103493.78;5012136;28;20057;-78
2024/01/27 03:24:13;;;;;;;7.90;2.75;;;;;;;1.03;100.00;103485.16;5009378;28;20039;-78
2024/01/27 03:26:40;;;;;;;9.70;2.33;;;;;;;1.00;100.00;103482.06;5009710;28;20043;-79
2024/01/27 03:29:06;;;;;;;8.77;2.88;;;;;;;1.02;100.00;103480.97;5011059;28;20051;-79
2024/01/27 03:31:34;;;;;;;12.80;2.95;;;;;;;1.02;100.00;103487.00;4992299;28;20073;-79
2024/01/27 03:34:01;;;;;;;5.28;2.58;;;;;;;1.03;100.00;103488.53;5010281;28;20043;-79
2024/01/27 03:36:28;;;;;;;11.25;2.92;;;;;;;1.02;100.00;103475.72;4975917;28;20035;-79
2024/01/27 03:38:58;;;;;;;10.55;3.08;;;;;;;1.02;100.00;103478.34;5009402;28;20062;-79
2024/01/27 03:41:25;;;;;;;10.02;3.58;;;;;;;0.99;100.00;103477.13;5009078;28;20078;-79
2024/01/27 03:43:51;;;;;;;11.27;3.40;;;;;;;0.99;100.00;103482.38;5009547;28;20042;-79
2024/01/27 03:46:19;;;;;;;17.10;3.70;;;;;;;0.97;100.00;103487.91;4990261;28;20039;-79
2024/01/27 03:48:48;;;;;;;11.75;3.65;;;;;;;0.97;100.00;103482.66;5009736;28;20061;-79
2024/01/27 03:51:15;;;;;;;9.48;3.67;;;;;;;0.95;100.00;103495.31;5009730;28;20050;-79
2024/01/27 03:53:45;;;;;;;5.15;3.40;;;;;;;0.95;100.00;103492.69;4991468;28;20055;-79
2024/01/27 03:56:13;;;;;;;11.18;4.63;;;;;;;0.96;100.00;103496.09;5008133;28;20813;-78
2024/01/27 03:58:39;;;;;;;8.23;4.13;;;;;;;0.96;100.00;103499.50;4988827;28;20074;-79
2024/01/27 04:01:06;;;;;;;19.33;4.40;;;;;;;0.95;100.00;103505.81;5007710;28;20047;-79
2024/01/27 04:03:33;;;;;;;18.13;4.50;;;;;;;0.95;100.00;103499.78;5005418;28;20039;-79
2024/01/27 04:06:02;;;;;;;13.02;4.10;;;;;;;0.94;100.00;103490.38;4984525;28;20050;-79
2024/01/27 04:08:30;;;;;;;14.40;4.60;;;;;;;0.94;100.00;103498.25;5003413;28;20039;-79
2024/01/27 04:10:57;;;;;;;9.32;4.55;;;;;;;0.95;100.00;103491.94;5007420;28;20123;-79
2024/01/27 04:13:24;;;;;;;11.15;4.43;;;;;;;0.96;100.00;103503.97;4991162;28;20043;-79
2024/01/27 04:15:51;;;;;;;12.40;4.35;;;;;;;0.94;100.00;103506.13;5008724;28;20124;-79
2024/01/27 04:18:18;;;;;;;16.33;4.80;;;;;;;0.95;100.00;103515.53;5011182;28;20049;-79
2024/01/27 04:20:45;;;;;;;21.15;5.25;;;;;;;0.91;100.00;103502.25;5013170;28;20039;-79
2024/01/27 04:23:12;;;;;;;11.82;4.30;;;;;;;0.91;100.00;103497.00;5016968;28;20043;-78
2024/01/27 04:25:39;;;;;;;17.15;4.68;;;;;;;0.92;100.00;103503.78;5017689;28;20049;-79
2024/01/27 04:28:06;;;;;;;12.88;5.03;;;;;;;0.92;100.00;103493.31;4999964;28;20594;-79
2024/01/27 04:30:32;;;;;;;13.57;5.07;;;;;;;0.91;100.00;103504.09;4998493;28;20051;-79
2024/01/27 04:32:59;;;;;;;11.55;4.65;;;;;;;0.90;100.00;103505.94;5017234;28;20051;-79
2024/01/27 04:35:26;;;;;;;15.65;5.03;;;;;;;0.88;100.00;103505.47;5016887;28;20042;-79
2024/01/27 04:37:53;;;;;;;13.98;4.78;;;;;;;0.87;100.00;103509.19;4984493;28;20043;-78
2024/01/27 04:40:21;;;;;;;14.63;5.28;;;;;;;0.84;100.00;103515.03;5015112;28;20047;-79
2024/01/27 04:42:48;;;;;;;13.77;5.35;;;;;;;0.83;100.00;103516.13;5015340;28;20046;-79
2024/01/27 04:45:15;;;;;;;13.20;4.40;;;;;;;0.83;100.00;103516.13;5018021;28;20735;-79
2024/01/27 04:47:42;;;;;;;12.15;5.38;;;;;;;0.82;100.00;103514.56;5015978;28;20061;-79
2024/01/27 04:50:09;;;;;;;14.70;4.85;;;;;;;0.81;100.00;103507.78;5017180;28;20046;-79
2024/01/27 04:52:36;;;;;;;16.70;6.03;;;;;;;0.80;100.00;103502.88;5018288;28;20066;-79
2024/01/27 04:55:03;;;;;;;15.82;5.63;;;;;;;0.80;100.00;103515.97;5007891;28;20047;-75
2024/01/27 04:57:29;;;;;;;12.98;4.78;;;;;;;0.79;100.00;103517.06;4994255;28;20533;-76
2024/01/27 04:59:56;;;;;;;10.50;5.68;;;;;;;0.79;100.00;103504.72;4995615;28;20487;-75
2024/01/27 05:02:22;;;;;;;9.27;5.65;;;;;;;0.80;100.00;103501.00;4995255;28;20046;-75
2024/01/27 05:04:49;;;;;;;13.75;5.43;;;;;;;0.79;100.00;103509.97;4995310;28;20138;-75
2024/01/27 05:07:16;;;;;;;10.73;5.18;;;;;;;0.78;100.00;103512.88;4995790;28;20055;-75
2024/01/27 05:09:43;;;;;;;15.38;6.18;;;;;;;0.78;100.00;103505.03;4994949;28;20146;-75
2024/01/27 05:12:09;;;;;;;17.20;6.10;;;;;;;0.76;100.00;103510.56;4994928;28;20137;-75
2024/01/27 05:14:36;;;;;;;11.10;6.03;;;;;;;0.77;100.00;103512.13;4994825;28;20043;-75
2024/01/27 05:17:02;;;;;;;10.93;5.97;;;;;;;0.77;100.00;103512.13;4995276;28;20043;-75
2024/01/27 05:19:29;;;;;;;11.38;5.57;;;;;;;0.79;100.00;103502.09;4994900;28;20051;-75
2024/01/27 05:21:56;;;;;;;12.18;6.28;;;;;;;0.78;100.00;103494.53;4993976;28;20053;-75
2024/01/27 05:24:22;;;;;;;11.57;5.95;;;;;;;0.76;100.00;103491.44;4995044;28;20126;-75
2024/01/27 05:26:49;;;;;;;17.67;6.47;;;;;;;0.75;100.00;103485.41;4995705;28;20066;-75
2024/01/27 05:29:15;;;;;;;10.20;6.35;;;;;;;0.74;100.00;103483.09;4994785;28;20096;-75
2024/01/27 05:31:43;;;;;;;12.35;6.03;;;;;;;0.73;100.00;103481.56;4994419;28;20050;-75
2024/01/27 05:34:10;;;;;;;16.45;6.82;;;;;;;0.73;100.00;103484.19;4995335;28;20050;-75
2024/01/27 05:36:37;;;;;;;11.95;6.82;;;;;;;0.72;100.00;103477.38;4994304;28;20043;-75
2024/01/27 05:39:04;;;;;;;12.43;6.15;;;;;;;0.71;100.00;103479.25;4995663;28;20534;-75
2024/01/27 05:41:31;;;;;;;15.15;6.63;;;;;;;0.70;100.00;103485.56;4994776;28;20050;-75
2024/01/27 05:43:57;;;;;;;20.67;7.68;;;;;;;0.72;100.00;103485.25;4994641;28;20078;-73
2024/01/27 05:46:24;;;;;;;18.27;7.78;;;;;;;0.71;100.00;103484.47;4994898;28;20042;-75
2024/01/27 05:48:53;;;;;;;13.40;7.13;;;;;;;0.72;100.00;103480.78;4995037;28;20043;-76
2024/01/27 05:51:22;;;;;;;17.88;6.85;;;;;;;0.72;100.00;103485.25;4994920;28;20054;-75
2024/01/27 05:53:49;;;;;;;18.15;7.38;;;;;;;0.72;100.00;103485.25;4994290;28;20051;-74
2024/01/27 05:56:20;;;;;;;13.45;7.15;;;;;;;0.73;100.00;103484.94;4990897;28;20557;-74
2024/01/27 05:58:47;;;;;;;13.82;7.35;;;;;;;0.72;100.00;103485.25;4991176;28;20130;-74
2024/01/27 06:01:14;;;;;;;12.02;7.43;;;;;;;0.73;100.00;103492.03;4994078;28;20043;-74
2024/01/27 06:03:42;;;;;;;19.45;7.65;;;;;;;0.72;100.00;103480.78;4994597;28;20875;-73
2024/01/27 06:06:09;;;;;;;22.05;8.23;;;;;;;0.73;100.00;103492.81;4994108;28;20518;-74
2024/01/27 06:08:36;;;;;;;10.55;7.28;;;;;;;0.73;100.00;103482.34;4994719;28;20242;-74
2024/01/27 06:11:03;;;;;;;15.77;7.63;;;;;;;0.73;100.00;103484.94;4993791;28;20074;-75
2024/01/27 06:13:34;;;;;;;12.85;7.72;;;;;;;0.75;100.00;103489.91;4993800;28;20548;-75
2024/01/27 06:16:00;;;;;;;20.25;8.60;;;;;;;0.74;100.00;103483.88;4994320;28;20046;-75
2024/01/27 06:18:27;;;;;;;13.70;7.45;;;;;;;0.74;100.00;103502.22;4994084;28;20577;-74
2024/01/27 06:20:54;;;;;;;14.55;7.75;;;;;;;0.73;100.00;103498.06;4994359;28;20150;-74
2024/01/27 06:23:20;;;;;;;16.38;7.85;;;;;;;0.74;100.00;103496.22;4994050;28;20047;-74
2024/01/27 06:25:47;;;;;;;22.85;8.65;;;;;;;0.75;100.00;103493.28;4994638;28;20506;-73
2024/01/27 06:28:14;;;;;;;15.88;8.55;;;;;;;0.77;100.00;103488.50;4994295;28;20178;-77
2024/01/27 06:30:40;;;;;;;16.27;8.57;;;;;;;0.77;100.00;103491.13;4993600;28;20053;-77
2024/01/27 06:33:07;;;;;;;15.07;8.30;;;;;;;0.76;100.00;103491.44;4993344;28;20105;-77
2024/01/27 06:35:33;;;;;;;19.35;8.40;;;;;;;0.75;100.00;103493.28;4993643;28;20047;-77
2024/01/27 06:38:00;;;;;;;14.50;8.85;;;;;;;0.75;100.00;103501.16;4994343;28;20043;-77
2024/01/27 06:40:26;;;;;;;25.58;10.07;;;;;;;0.74;100.00;103494.38;4993295;28;20051;-77
2024/01/27 06:42:53;;;;;;;15.73;8.20;;;;;;;0.74;100.00;103490.97;4994804;28;20047;-77
2024/01/27 06:45:20;;;;;;;22.00;9.32;;;;;;;0.73;100.00;103492.81;4994064;28;20502;-77
2024/01/27 06:47:47;;;;;;;14.45;8.77;;;;;;;0.73;100.00;103492.03;4993569;28;20051;-77
2024/01/27 06:50:14;;;;;;;23.75;8.75;;;;;;;0.71;100.00;103491.56;4993338;28;20097;-75
2024/01/27 06:52:41;;;;;;;19.40;8.70;;;;;;;0.70;100.00;103493.44;4993355;28;20122;-76
2024/01/27 06:55:10;;;;;;;24.77;9.00;;;;;;;0.69;100.00;103491.09;4993645;28;20070;-76
2024/01/27 06:57:37;;;;;;;19.83;8.75;;;;;;;0.68;100.00;103500.03;4993780;28;20042;-76
2024/01/27 07:00:04;;;;;;;17.00;9.10;;;;;;;0.65;100.00;103507.44;4993948;28;20055;-78
2024/01/27 07:02:30;;;;;;;18.95;9.23;;;;;;;0.64;100.00;103499.88;4996858;28;20047;-78
2024/01/27 07:04:57;;;;;;;20.48;9.20;;;;;;;0.64;100.00;103505.13;4995277;28;20073;-76
2024/01/27 07:07:26;;;;;;;23.33;9.00;;;;;;;0.64;100.00;103507.75;4997357;28;20043;-77
2024/01/27 07:09:55;;;;;;;18.35;9.15;;;;;;;0.64;100.00;103507.75;4975840;28;20141;-78
2024/01/27 07:12:21;;;;;;;14.95;8.32;;;;;;;0.63;100.00;103511.44;4996260;28;20050;-78
2024/01/27 07:14:48;;;;;;;20.45;8.50;;;;;;;0.63;100.00;103516.69;5000431;28;20109;-79
2024/01/27 07:17:15;;;;;;;17.52;8.82;;;;;;;0.63;100.00;103519.31;5000217;28;20043;-78
2024/01/27 07:19:41;;;;;;;14.38;8.50;;;;;;;0.62;100.00;103528.25;4998364;28;20137;-78
2024/01/27 07:22:08;;;;;;;18.23;9.00;;;;;;;0.62;100.00;103531.66;4995190;28;20047;-78
2024/01/27 07:24:35;;;;;;;16.23;9.55;;;;;;;0.62;100.00;103530.88;4994855;28;20051;-78
2024/01/27 07:27:03;;;;;;;18.55;9.30;;;;;;;0.64;100.00;103531.34;4995062;28;20046;-77
2024/01/27 07:29:30;;;;;;;20.00;9.32;;;;;;;0.62;100.00;103529.03;4994367;28;20141;-77
2024/01/27 07:31:57;;;;;;;15.43;9.50;;;;;;;0.62;100.00;103536.13;4995567;28;20601;-78
2024/01/27 07:34:24;;;;;;;20.23;9.02;;;;;;;0.62;100.00;103536.13;4993312;28;20053;-75
2024/01/27 07:36:50;;;;;;;20.05;8.73;;;;;;;0.62;100.00;103541.34;4993371;28;20038;-75
2024/01/27 07:39:17;;;;;;;21.17;9.73;;;;;;;0.63;100.00;103537.66;4992699;28;20051;-75
2024/01/27 07:41:43;;;;;;;18.27;8.73;;;;;;;0.62;100.00;103536.88;4992944;28;20130;-76
2024/01/27 07:44:11;;;;;;;16.85;9.10;;;;;;;0.63;100.00;103541.06;4994180;28;20510;-76
2024/01/27 07:46:39;;;;;;;17.90;9.23;;;;;;;0.63;100.00;103545.53;4995867;28;20049;-75
2024/01/27 07:49:06;;;;;;;16.65;8.93;;;;;;;0.63;100.00;103548.91;4997612;28;20106;-75
2024/01/27 07:51:34;;;;;;;19.60;8.88;;;;;;;0.67;100.00;103549.09;4996788;28;20050;-76
2024/01/27 07:54:01;;;;;;;20.05;8.80;;;;;;;0.71;100.00;103552.66;4997582;28;20038;-77
2024/01/27 07:56:28;;;;;;;18.60;8.68;;;;;;;0.75;100.00;103552.81;4998115;28;20766;-77
2024/01/27 07:58:54;;;;;;;19.10;8.88;;;;;;;0.79;100.00;103557.16;4999166;28;20643;-79
2024/01/27 08:01:21;;;;;;;16.75;8.20;;;;;;;0.82;100.00;103548.66;4996930;28;20267;-76
2024/01/27 08:03:47;;;;;;;16.00;8.15;;;;;;;0.86;100.00;103554.84;4996436;28;20051;-77
2024/01/27 08:06:21;;;;;;;15.80;7.82;;;;;;;0.91;100.00;103554.72;4997983;28;20515;-76
2024/01/27 08:08:48;;;;;;;16.92;9.57;;;;;;;0.99;100.00;103558.44;4997285;28;20050;-79
2024/01/27 08:11:15;;;;;;;18.20;9.05;;;;;;;1.03;100.00;103559.38;4995776;28;20135;-76
2024/01/27 08:13:42;;;;;;;13.60;7.85;;;;;;;1.09;100.00;103560.00;4996348;28;20142;-76
2024/01/27 08:16:12;;;;;;;20.60;8.38;;;;;;;1.15;100.00;103554.31;4998548;28;20051;-77
2024/01/27 08:18:44;;;;;;;20.67;8.93;;;;;;;1.22;100.00;103554.63;5003949;28;20516;-77
2024/01/27 08:21:11;;;;;;;19.25;8.65;;;;;;;1.27;100.00;103557.09;5001234;28;20051;-76
2024/01/27 08:23:38;;;;;;;16.23;7.43;;;;;;;1.33;100.00;103557.72;4996208;28;20043;-76
2024/01/27 08:26:05;;;;;;;13.70;7.88;;;;;;;1.39;100.00;103553.09;4996321;28;20047;-77
2024/01/27 08:28:32;;;;;;;14.23;8.40;;;;;;;1.46;100.00;103564.69;4995520;28;20122;-76
2024/01/27 08:30:59;;;;;;;14.43;8.63;;;;;;;1.53;100.00;103565.00;4996694;28;20122;-76
2024/01/27 08:33:26;;;;;;;23.70;9.55;;;;;;;1.61;100.00;103558.97;4995675;28;20515;-76
2024/01/27 08:35:53;;;;;;;12.13;7.95;;;;;;;1.66;100.00;103565.91;4995469;28;20063;-77
2024/01/27 08:38:20;;;;;;;19.33;8.95;;;;;;;1.70;100.00;103563.44;4996848;28;20055;-77
2024/01/27 08:40:46;;;;;;;14.55;7.90;;;;;;;1.76;100.00;103562.22;4996460;28;20051;-76
2024/01/27 08:43:13;;;;;;;20.65;8.65;;;;;;;1.84;100.00;103558.81;4996444;28;20053;-79
2024/01/27 08:45:40;;;;;;;17.80;8.88;;;;;;;1.90;100.00;103560.22;4998414;28;20042;-78
2024/01/27 08:48:07;;;;;;;17.45;7.60;;;;;;;1.95;100.00;103563.44;4999600;28;20047;-77
2024/01/27 08:50:34;;;;;;;16.48;7.53;;;;;;;2.04;100.00;103566.03;4996565;28;20054;-78
2024/01/27 08:53:01;;;;;;;13.73;7.40;;;;;;;2.11;100.00;103561.09;4993364;28;20046;-77
2024/01/27 08:55:28;;;;;;;18.95;8.10;;;;;;;2.18;100.00;103563.25;4978483;28;20046;-76
2024/01/27 08:57:58;;;;;;;15.80;7.93;;;;;;;2.28;100.00;103566.31;4995064;28;20049;-77
2024/01/27 09:00:25;;;;;;;16.42;8.35;;;;;;;2.37;100.00;103574.19;4996027;28;20053;-76
2024/01/27 09:02:53;;;;;;;16.38;8.25;;;;;;;2.45;100.00;103576.00;4995402;28;20546;-76
2024/01/27 09:05:20;;;;;;;21.20;8.43;;;;;;;2.53;100.00;103575.19;4978100;28;20038;-76
2024/01/27 09:07:46;;;;;;;17.70;7.97;;;;;;;2.60;100.00;103585.22;4995484;28;20047;-77
2024/01/27 09:10:15;;;;;;;16.80;8.35;;;;;;;2.66;100.00;103578.72;4994996;28;20138;-76
2024/01/27 09:12:42;;;;;;;11.98;7.22;;;;;;;2.69;100.00;103572.81;4977893;28;20054;-75
2024/01/27 09:15:09;;;;;;;12.43;7.43;;;;;;;2.72;100.00;103576.69;4979064;28;20082;-76
2024/01/27 09:17:42;;;;;;;16.70;7.85;;;;;;;2.71;100.00;103578.53;4996030;28;20046;-76
2024/01/27 09:20:12;;;;;;;24.38;8.10;;;;;;;2.73;100.00;103584.25;4975468;28;20047;-76
2024/01/27 09:22:39;;;;;;;16.08;7.50;;;;;;;2.75;100.00;103584.72;4995590;28;20507;-77
2024/01/27 09:25:06;;;;;;;12.02;8.10;;;;;;;2.74;100.00;103587.66;4992600;28;20094;-77
2024/01/27 09:27:33;;;;;;;12.48;7.55;;;;;;;2.73;100.00;103589.53;4995131;28;20043;-77
2024/01/27 09:30:00;;;;;;;13.65;7.95;;;;;;;2.74;100.00;103582.41;4978264;28;21211;-77
2024/01/27 09:32:27;;;;;;;15.25;7.97;;;;;;;2.80;100.00;103586.41;4995194;28;20051;-75
2024/01/27 09:34:53;;;;;;;22.58;7.40;;;;;;;2.84;100.00;103590.69;4994993;28;20102;-75
2024/01/27 09:37:20;;;;;;;14.95;7.53;;;;;;;2.90;100.00;103599.94;4977075;28;20077;-74
2024/01/27 09:39:47;;;;;;;17.40;8.57;;;;;;;2.96;100.00;103598.69;4995400;28;20134;-77
2024/01/27 09:42:16;;;;;;;17.60;7.90;;;;;;;3.02;100.00;103599.28;4995144;28;20089;-76
2024/01/27 09:44:46;;;;;;;23.05;8.27;;;;;;;3.08;100.00;103613.03;4995166;28;20106;-76
2024/01/27 09:47:13;;;;;;;19.23;7.85;;;;;;;3.11;100.00;103620.28;4995171;28;20039;-76
2024/01/27 09:49:43;;;;;;;18.40;7.50;;;;;;;3.16;100.00;103623.53;4994669;28;20050;-76
2024/01/27 09:52:09;;;;;;;16.20;7.60;;;;;;;3.22;100.00;103624.09;4992921;28;20086;-79
2024/01/27 09:54:36;;;;;;;24.25;8.30;;;;;;;3.28;100.00;103625.44;4995475;28;20118;-76
2024/01/27 09:57:04;;;;;;;19.42;8.00;;;;;;;3.34;100.00;103632.84;4995582;28;20078;-78
2024/01/27 09:59:33;;;;;;;22.25;7.78;;;;;;;3.41;100.00;103632.34;4994484;28;20573;-77
2024/01/27 10:02:00;;;;;;;16.85;7.82;;;;;;;3.43;100.00;103632.81;4995026;28;20049;-76
2024/01/27 10:04:28;;;;;;;18.95;8.30;;;;;;;3.52;100.00;103645.91;4993270;28;20062;-75
2024/01/27 10:06:57;;;;;;;13.15;7.93;;;;;;;3.58;100.00;103649.91;4994739;28;20050;-74
2024/01/27 10:09:24;;;;;;;20.58;8.00;;;;;;;3.65;100.00;103647.53;4993732;28;20482;-74
2024/01/27 10:11:53;;;;;;;18.20;7.68;;;;;;;3.70;100.00;103642.06;4994507;28;20581;-74
2024/01/27 10:14:20;;;;;;;13.40;6.63;;;;;;;3.76;100.00;103627.59;4994444;28;20051;-74
2024/01/27 10:16:47;;;;;;;15.70;7.40;;;;;;;3.82;100.00;103639.50;4994785;28;20057;-75
2024/01/27 10:19:18;;;;;;;19.83;7.75;;;;;;;3.88;100.00;103635.56;4994444;28;20051;-74
2024/01/27 10:21:46;;;;;;;15.45;7.63;;;;;;;3.94;100.00;103638.78;4994684;28;20051;-74
2024/01/27 10:24:13;;;;;;;18.75;7.97;;;;;;;3.99;100.00;103638.59;4994542;28;20113;-77
2024/01/27 10:26:39;;;;;;;12.10;7.85;;;;;;;4.06;100.00;103643.31;4991549;28;20050;-77
2024/01/27 10:29:06;;;;;;;17.50;7.88;;;;;;;4.11;100.00;103643.91;4995110;28;20413;-74
2024/01/27 10:31:36;;;;;;;20.58;7.60;;;;;;;4.16;100.00;103643.69;4993389;28;20070;-75
2024/01/27 10:34:04;;;;;;;23.77;7.15;;;;;;;4.23;100.00;103651.09;4994474;28;20047;-77
2024/01/27 10:36:42;;;;;;;16.40;7.03;;;;;;;4.28;100.00;103651.66;4995050;28;20042;-79
2024/01/27 10:39:22;;;;;;;15.38;6.90;;;;;;;4.37;100.00;103650.81;4977255;28;20490;-75
2024/01/27 10:41:51;;;;;;;16.88;6.88;;;;;;;4.44;100.00;103658.94;4990783;28;20125;-76
2024/01/27 10:44:18;;;;;;;14.05;7.20;;;;;;;4.51;100.00;103653.91;4995288;28;20039;-79
2024/01/27 10:46:48;;;;;;;19.27;8.25;;;;;;;4.56;100.00;103656.34;4997614;28;20039;-79
2024/01/27 10:49:16;;;;;;;17.88;7.47;;;;;;;4.61;100.00;103656.13;4994707;28;20047;-78
2024/01/27 10:51:54;;;;;;;13.60;6.90;;;;;;;4.68;100.00;103638.66;4994170;28;20125;-79
2024/01/27 10:54:26;;;;;;;14.27;7.10;;;;;;;4.74;100.00;103639.22;4993322;28;20047;-79
2024/01/27 10:56:55;;;;;;;18.67;7.65;;;;;;;4.78;100.00;103629.56;4998013;28;20490;-78
2024/01/27 10:59:22;;;;;;;20.00;7.05;;;;;;;4.85;100.00;103627.09;4997035;28;20043;-79
2024/01/27 11:01:53;;;;;;;22.98;7.60;;;;;;;4.86;100.00;103628.66;4995800;28;20571;-77
2024/01/27 11:04:21;;;;;;;17.67;7.03;;;;;;;4.89;100.00;103625.34;4996939;28;20078;-77
2024/01/27 11:06:48;;;;;;;13.90;7.30;;;;;;;4.93;100.00;103631.50;4994644;28;20517;-76
2024/01/27 11:09:17;;;;;;;18.08;7.70;;;;;;;4.99;100.00;103622.28;4993157;28;20058;-74
2024/01/27 11:11:45;;;;;;;15.73;7.10;;;;;;;5.05;100.00;103628.09;4990654;28;20053;-75
2024/01/27 11:14:13;;;;;;;26.45;7.57;;;;;;;5.09;100.00;103622.94;4993404;28;20038;-74
2024/01/27 11:16:44;;;;;;;17.50;7.82;;;;;;;5.12;100.00;103615.13;4993490;28;20047;-77
2024/01/27 11:19:12;;;;;;;13.07;6.60;;;;;;;5.19;100.00;103623.28;4992683;28;20514;-75